Time;durP1;ratioP1;P1;durP2;ratioP2;P2;SDS_P1;SDS_P2;PMS_P1;PMS_P2;Temp;Humidity;BMP_temperature;BMP_pressure;BME280_temperature;BME280_humidity;BME280_pressure;Samples;Min_cycle;Max_cycle;Signal;HPM_P1;HPM_P2
2023/03/29 00:01:29;;;;;;;13.80;3.13;;;3.90;99.90;;;;;;5017201;28;20120;-82
2023/03/29 00:03:56;;;;;;;9.98;3.33;;;4.00;99.90;;;;;;5032166;28;20036;-82
2023/03/29 00:06:21;;;;;;;6.00;3.00;;;4.00;99.90;;;;;;5029202;28;20040;-82
2023/03/29 00:08:54;;;;;;;9.48;3.20;;;4.00;99.90;;;;;;5024420;28;20029;-82
2023/03/29 00:11:21;;;;;;;7.13;2.90;;;4.00;99.90;;;;;;5036465;28;20108;-83
2023/03/29 00:13:49;;;;;;;7.95;2.70;;;4.00;99.90;;;;;;5038346;28;20052;-82
2023/03/29 00:16:16;;;;;;;12.90;3.05;;;4.00;99.90;;;;;;5031655;28;20021;-82
2023/03/29 00:18:42;;;;;;;8.15;3.42;;;4.00;99.90;;;;;;5042886;28;20044;-82
2023/03/29 00:21:07;;;;;;;6.80;3.05;;;3.90;99.90;;;;;;5032797;28;20471;-82
2023/03/29 00:23:33;;;;;;;11.82;3.55;;;3.90;99.90;;;;;;5032145;28;20682;-83
2023/03/29 00:25:59;;;;;;;11.90;3.72;;;4.00;99.90;;;;;;5035382;28;20237;-83
2023/03/29 00:28:24;;;;;;;13.23;3.10;;;4.00;99.90;;;;;;5023280;28;20034;-82
2023/03/29 00:30:50;;;;;;;19.30;3.80;;;3.90;99.90;;;;;;5029820;28;20479;-82
2023/03/29 00:33:19;;;;;;;21.50;4.00;;;3.90;99.90;;;;;;5033127;28;20083;-82
2023/03/29 00:35:47;;;;;;;8.93;3.15;;;3.90;99.90;;;;;;5032115;28;20025;-83
2023/03/29 00:38:13;;;;;;;6.80;3.28;;;3.90;99.90;;;;;;5037934;28;20382;-82
2023/03/29 00:40:44;;;;;;;11.25;3.17;;;3.90;99.90;;;;;;5032013;28;20029;-82
2023/03/29 00:43:12;;;;;;;6.13;3.00;;;4.00;99.90;;;;;;5017543;28;20403;-82
2023/03/29 00:45:37;;;;;;;9.98;3.13;;;4.00;99.90;;;;;;5031367;28;20025;-82
2023/03/29 00:48:07;;;;;;;9.95;3.17;;;4.00;99.90;;;;;;5027705;28;20029;-82
2023/03/29 00:50:40;;;;;;;12.02;3.53;;;4.10;99.90;;;;;;5018170;28;20037;-82
2023/03/29 00:53:09;;;;;;;8.00;2.65;;;4.10;99.90;;;;;;5032774;28;20047;-82
2023/03/29 00:55:41;;;;;;;9.32;2.90;;;4.20;99.90;;;;;;5043868;28;20041;-82
2023/03/29 00:58:11;;;;;;;5.70;2.38;;;4.30;99.90;;;;;;5027258;28;20040;-82
2023/03/29 01:00:47;;;;;;;18.13;3.08;;;4.50;99.90;;;;;;5026994;28;20627;-82
2023/03/29 01:03:23;;;;;;;11.18;4.15;;;4.60;99.90;;;;;;5026694;28;20052;-83
2023/03/29 01:06:03;;;;;;;13.30;2.75;;;4.70;99.90;;;;;;5024899;28;20028;-84
2023/03/29 01:08:34;;;;;;;13.07;2.65;;;4.80;99.90;;;;;;5032297;28;20167;-81
2023/03/29 01:11:10;;;;;;;12.85;3.38;;;5.00;99.90;;;;;;5031017;28;20454;-82
2023/03/29 01:13:58;;;;;;;16.58;3.35;;;5.10;99.90;;;;;;5041173;28;20390;-82
2023/03/29 01:16:27;;;;;;;8.88;2.90;;;5.10;99.90;;;;;;5029690;28;20485;-82
2023/03/29 01:18:53;;;;;;;15.35;3.10;;;5.20;99.90;;;;;;5037040;28;20080;-83
2023/03/29 01:21:28;;;;;;;15.20;3.20;;;5.20;99.90;;;;;;5024981;28;20493;-84
2023/03/29 01:24:06;;;;;;;12.15;2.95;;;5.20;99.90;;;;;;5033476;28;20082;-83
2023/03/29 01:26:50;;;;;;;10.75;3.28;;;5.20;99.90;;;;;;5038943;28;20037;-83
2023/03/29 01:29:25;;;;;;;13.30;3.20;;;5.30;99.90;;;;;;5031128;28;20034;-81
2023/03/29 01:32:07;;;;;;;12.00;3.53;;;5.30;99.90;;;;;;5030024;28;20108;-82
2023/03/29 01:34:49;;;;;;;16.25;3.25;;;5.30;99.90;;;;;;5030555;28;20033;-85
2023/03/29 01:37:27;;;;;;;6.32;2.50;;;5.30;99.90;;;;;;5028913;28;20045;-83
2023/03/29 01:39:53;;;;;;;11.82;3.22;;;5.30;99.90;;;;;;5033323;28;20047;-82
2023/03/29 01:42:38;;;;;;;13.40;5.05;;;5.20;99.90;;;;;;5030013;28;20115;-82
2023/03/29 01:45:09;;;;;;;10.70;2.90;;;5.30;99.90;;;;;;5028396;28;20040;-82
2023/03/29 01:47:49;;;;;;;16.60;3.38;;;5.30;99.90;;;;;;5039523;28;20049;-82
2023/03/29 01:50:21;;;;;;;9.85;3.28;;;5.30;99.90;;;;;;5027253;28;20036;-81
2023/03/29 01:52:57;;;;;;;8.52;3.03;;;5.30;99.90;;;;;;5039911;28;20021;-83
2023/03/29 01:55:30;;;;;;;5.13;2.40;;;5.30;99.90;;;;;;5026095;28;20441;-84
2023/03/29 01:57:59;;;;;;;12.75;3.33;;;5.30;99.90;;;;;;5019158;28;20037;-82
2023/03/29 02:00:28;;;;;;;12.73;3.47;;;5.30;99.90;;;;;;5035942;28;20087;-81
2023/03/29 02:02:58;;;;;;;11.75;2.85;;;5.30;99.90;;;;;;5036704;28;20025;-82
2023/03/29 02:05:27;;;;;;;14.45;3.35;;;5.30;99.90;;;;;;5036966;28;20049;-83
2023/03/29 02:07:53;;;;;;;9.18;3.13;;;5.30;99.90;;;;;;5031899;28;20053;-82
2023/03/29 02:10:20;;;;;;;11.95;3.15;;;5.30;99.90;;;;;;5036739;28;20037;-83
2023/03/29 02:12:46;;;;;;;8.98;2.97;;;5.30;99.90;;;;;;5028812;28;20075;-82
2023/03/29 02:15:17;;;;;;;16.73;3.13;;;5.30;99.90;;;;;;5026801;28;20037;-82
2023/03/29 02:17:43;;;;;;;7.93;4.20;;;5.30;99.90;;;;;;5030082;28;20108;-83
2023/03/29 02:20:19;;;;;;;19.42;3.65;;;5.30;99.90;;;;;;5030513;28;20128;-83
2023/03/29 02:23:03;;;;;;;5.70;2.88;;;5.20;99.90;;;;;;5031301;28;20434;-83
2023/03/29 02:25:31;;;;;;;15.07;3.25;;;5.20;99.90;;;;;;5018483;28;20527;-83
2023/03/29 02:27:58;;;;;;;12.15;3.60;;;5.20;99.90;;;;;;5035024;28;20038;-83
2023/03/29 02:30:30;;;;;;;10.48;3.30;;;5.20;99.90;;;;;;5037699;28;20487;-83
2023/03/29 02:33:09;;;;;;;8.43;3.20;;;5.20;99.90;;;;;;5027759;28;20057;-83
2023/03/29 02:35:44;;;;;;;11.63;3.20;;;5.20;99.90;;;;;;5026226;28;20129;-84
2023/03/29 02:38:10;;;;;;;12.02;3.08;;;5.10;99.90;;;;;;5027854;28;20063;-84
2023/03/29 02:40:40;;;;;;;11.55;3.22;;;5.10;99.90;;;;;;5033226;28;20064;-83
2023/03/29 02:43:08;;;;;;;10.82;3.65;;;5.10;99.90;;;;;;5031295;28;20052;-83
2023/03/29 02:45:35;;;;;;;12.55;3.58;;;5.10;99.90;;;;;;5033145;28;20059;-83
2023/03/29 02:48:07;;;;;;;7.32;2.95;;;5.10;99.90;;;;;;5029547;28;20489;-83
2023/03/29 02:50:37;;;;;;;12.43;3.42;;;5.10;99.90;;;;;;5032159;28;20025;-83
2023/03/29 02:53:12;;;;;;;8.60;3.38;;;5.10;99.90;;;;;;5032520;28;20061;-83
2023/03/29 02:55:37;;;;;;;15.38;3.25;;;5.10;99.90;;;;;;5027630;28;20037;-84
2023/03/29 02:58:07;;;;;;;7.88;3.55;;;5.00;99.90;;;;;;5035259;28;20021;-83
2023/03/29 03:00:39;;;;;;;7.20;2.90;;;5.10;99.90;;;;;;5031472;28;20033;-83
2023/03/29 03:03:06;;;;;;;8.40;3.53;;;5.00;99.90;;;;;;5045137;28;20029;-83
2023/03/29 03:05:32;;;;;;;7.32;3.55;;;5.00;99.90;;;;;;5037454;28;20036;-83
2023/03/29 03:07:58;;;;;;;5.07;2.95;;;5.00;99.90;;;;;;5037956;28;20033;-83
2023/03/29 03:10:24;;;;;;;10.27;3.63;;;5.00;99.90;;;;;;5026277;28;20111;-83
2023/03/29 03:12:49;;;;;;;5.75;2.90;;;5.00;99.90;;;;;;5040959;28;20029;-83
2023/03/29 03:15:15;;;;;;;8.43;2.65;;;5.00;99.90;;;;;;5034919;28;20026;-83
2023/03/29 03:17:41;;;;;;;5.05;2.90;;;5.00;99.90;;;;;;5032781;28;20052;-83
2023/03/29 03:20:13;;;;;;;7.53;3.85;;;5.00;99.90;;;;;;5032192;28;20041;-83
2023/03/29 03:22:40;;;;;;;7.03;3.15;;;5.00;99.90;;;;;;5030228;28;20501;-83
2023/03/29 03:25:09;;;;;;;8.50;4.20;;;4.90;99.90;;;;;;5031795;28;20116;-83
2023/03/29 03:27:35;;;;;;;8.55;3.25;;;5.00;99.90;;;;;;5035527;28;20493;-84
2023/03/29 03:30:04;;;;;;;7.20;3.13;;;5.00;99.90;;;;;;5029639;28;20034;-83
2023/03/29 03:32:31;;;;;;;5.75;3.13;;;5.00;99.90;;;;;;5029494;28;20029;-83
2023/03/29 03:34:57;;;;;;;9.75;3.45;;;4.90;99.90;;;;;;5032249;28;20064;-83
2023/03/29 03:37:23;;;;;;;12.25;3.83;;;4.90;99.90;;;;;;5036327;28;20109;-83
2023/03/29 03:39:49;;;;;;;11.00;4.13;;;5.00;99.90;;;;;;5028838;28;20561;-83
2023/03/29 03:42:15;;;;;;;16.23;4.22;;;5.00;99.90;;;;;;5032375;28;20030;-85
2023/03/29 03:44:40;;;;;;;14.35;4.47;;;4.90;99.90;;;;;;5032870;28;20034;-83
2023/03/29 03:47:06;;;;;;;10.88;4.88;;;4.90;99.90;;;;;;5034988;28;20037;-84
2023/03/29 03:49:32;;;;;;;10.50;4.18;;;4.80;99.90;;;;;;5038538;28;20499;-81
2023/03/29 03:51:58;;;;;;;13.30;5.03;;;4.80;99.90;;;;;;5039829;28;20025;-82
2023/03/29 03:54:23;;;;;;;15.15;4.90;;;4.80;99.90;;;;;;5034001;28;20083;-81
2023/03/29 03:56:49;;;;;;;10.77;4.20;;;4.80;99.90;;;;;;5037013;28;20113;-83
2023/03/29 03:59:14;;;;;;;10.05;4.00;;;4.70;99.90;;;;;;5035810;28;20068;-82
2023/03/29 04:01:42;;;;;;;9.07;4.72;;;4.70;99.90;;;;;;5026979;28;20033;-82
2023/03/29 04:04:09;;;;;;;10.43;4.53;;;4.70;99.90;;;;;;5030371;28;20052;-83
2023/03/29 04:06:36;;;;;;;12.30;4.68;;;4.60;99.90;;;;;;5025248;28;20033;-83
2023/03/29 04:09:02;;;;;;;6.75;4.47;;;4.60;99.90;;;;;;5025018;28;20467;-83
2023/03/29 04:11:28;;;;;;;10.07;4.65;;;4.60;99.90;;;;;;5030264;28;20055;-82
2023/03/29 04:13:54;;;;;;;9.57;4.30;;;4.60;99.90;;;;;;5030060;28;20029;-82
2023/03/29 04:16:20;;;;;;;12.65;4.75;;;4.70;99.90;;;;;;5029119;28;20463;-82
2023/03/29 04:18:45;;;;;;;8.90;4.97;;;4.60;99.90;;;;;;5039547;28;20033;-81
2023/03/29 04:21:11;;;;;;;14.43;4.90;;;4.70;99.90;;;;;;5031329;28;20063;-82
2023/03/29 04:23:37;;;;;;;9.23;4.63;;;4.70;99.90;;;;;;5032873;28;20017;-82
2023/03/29 04:26:03;;;;;;;10.68;4.80;;;4.70;99.90;;;;;;5030877;28;20025;-83
2023/03/29 04:28:28;;;;;;;10.68;4.90;;;4.70;99.90;;;;;;5033888;28;20071;-82
2023/03/29 04:30:54;;;;;;;12.50;5.55;;;4.70;99.90;;;;;;5030554;28;20033;-82
2023/03/29 04:33:20;;;;;;;8.07;4.75;;;4.70;99.90;;;;;;5033376;28;20194;-82
2023/03/29 04:35:45;;;;;;;8.10;4.90;;;4.60;99.90;;;;;;5028814;28;20124;-82
2023/03/29 04:38:11;;;;;;;10.50;4.88;;;4.70;99.90;;;;;;5028136;28;20041;-82
2023/03/29 04:40:38;;;;;;;8.38;5.03;;;4.70;99.90;;;;;;5038600;28;20048;-83
2023/03/29 04:43:04;;;;;;;9.38;5.20;;;4.70;99.90;;;;;;5035934;28;20061;-82
2023/03/29 04:45:30;;;;;;;10.48;4.57;;;4.70;99.90;;;;;;5032017;28;20475;-83
2023/03/29 04:47:58;;;;;;;12.07;5.28;;;4.70;99.90;;;;;;5025080;28;20037;-82
2023/03/29 04:50:24;;;;;;;11.02;5.70;;;4.70;99.90;;;;;;5030799;28;20037;-82
2023/03/29 04:52:50;;;;;;;8.73;5.68;;;4.70;99.90;;;;;;5036820;28;20022;-84
2023/03/29 04:55:15;;;;;;;9.23;5.63;;;4.80;99.90;;;;;;5026139;28;20037;-84
2023/03/29 04:57:43;;;;;;;14.63;6.28;;;4.90;99.90;;;;;;5027792;28;20033;-83
2023/03/29 05:00:14;;;;;;;7.90;5.03;;;4.80;99.90;;;;;;5021951;28;20086;-83
2023/03/29 05:02:41;;;;;;;11.77;6.13;;;4.80;99.90;;;;;;5031551;28;20030;-82
2023/03/29 05:05:08;;;;;;;13.75;6.80;;;4.80;99.90;;;;;;5034482;28;20021;-80
2023/03/29 05:07:34;;;;;;;15.55;5.97;;;4.70;99.90;;;;;;5035650;28;20029;-84
2023/03/29 05:10:00;;;;;;;11.80;6.50;;;4.70;99.90;;;;;;5029931;28;20564;-81
2023/03/29 05:12:25;;;;;;;21.75;6.70;;;4.60;99.90;;;;;;5032503;28;20029;-83
2023/03/29 05:14:51;;;;;;;16.48;7.35;;;4.60;99.90;;;;;;5029437;28;20447;-83
2023/03/29 05:17:17;;;;;;;11.80;7.00;;;4.60;99.90;;;;;;5036624;28;20073;-83
2023/03/29 05:19:42;;;;;;;20.42;8.00;;;4.50;99.90;;;;;;5038489;28;20132;-82
2023/03/29 05:22:08;;;;;;;16.50;8.25;;;4.50;99.90;;;;;;5019766;28;20474;-82
2023/03/29 05:24:34;;;;;;;12.95;7.90;;;4.50;99.90;;;;;;5030130;28;20490;-84
2023/03/29 05:27:00;;;;;;;13.73;7.88;;;4.50;99.90;;;;;;5021459;28;20071;-81
2023/03/29 05:29:25;;;;;;;19.88;7.70;;;4.50;99.90;;;;;;5023650;28;20036;-81
2023/03/29 05:31:51;;;;;;;12.80;7.82;;;4.50;99.90;;;;;;5027474;28;20033;-85
2023/03/29 05:34:17;;;;;;;19.48;7.38;;;4.50;99.90;;;;;;5027123;28;20033;-82
2023/03/29 05:36:44;;;;;;;13.55;8.32;;;4.60;99.90;;;;;;5029440;28;20025;-83
2023/03/29 05:39:10;;;;;;;13.73;7.95;;;4.50;99.90;;;;;;5033210;28;20116;-84
2023/03/29 05:41:36;;;;;;;17.55;8.23;;;4.50;99.90;;;;;;5036889;28;20120;-81
2023/03/29 05:44:01;;;;;;;22.23;7.97;;;4.60;99.90;;;;;;5028248;28;20044;-81
2023/03/29 05:46:27;;;;;;;12.40;8.27;;;4.60;99.90;;;;;;5024818;28;20033;-82
2023/03/29 05:48:53;;;;;;;15.90;7.63;;;4.70;99.90;;;;;;5027698;28;20061;-82
2023/03/29 05:51:22;;;;;;;14.77;8.75;;;4.60;99.90;;;;;;5036341;28;20147;-82
2023/03/29 05:53:48;;;;;;;16.75;10.05;;;4.70;99.90;;;;;;5027220;28;20021;-83
2023/03/29 05:56:15;;;;;;;18.60;8.07;;;4.70;99.90;;;;;;5031382;28;20426;-82
2023/03/29 05:58:41;;;;;;;12.70;8.00;;;4.70;99.90;;;;;;5027522;28;20083;-83
2023/03/29 06:01:11;;;;;;;11.60;8.27;;;4.70;99.90;;;;;;5026791;28;20303;-83
2023/03/29 06:03:37;;;;;;;14.20;8.43;;;4.70;99.90;;;;;;5027341;28;20079;-83
2023/03/29 06:06:04;;;;;;;17.85;9.00;;;4.70;99.90;;;;;;5034422;28;20533;-84
2023/03/29 06:08:32;;;;;;;14.13;8.73;;;4.70;99.90;;;;;;5029943;28;20028;-83
2023/03/29 06:11:00;;;;;;;19.98;9.10;;;4.70;99.90;;;;;;5027923;28;20025;-83
2023/03/29 06:13:26;;;;;;;16.17;9.20;;;4.70;99.90;;;;;;5028520;28;20033;-83
2023/03/29 06:15:53;;;;;;;15.95;8.85;;;4.80;99.90;;;;;;5023622;28;20033;-84
2023/03/29 06:18:19;;;;;;;12.13;8.23;;;4.80;99.90;;;;;;5030707;28;20049;-84
2023/03/29 06:20:51;;;;;;;19.38;9.32;;;4.80;99.90;;;;;;5029893;28;20029;-83
2023/03/29 06:23:21;;;;;;;27.50;8.88;;;4.80;99.90;;;;;;5019303;28;20096;-82
2023/03/29 06:25:50;;;;;;;15.20;8.15;;;4.80;99.90;;;;;;5025411;28;20307;-85
2023/03/29 06:28:16;;;;;;;19.90;8.95;;;4.80;99.90;;;;;;5031106;28;20475;-84
2023/03/29 06:30:44;;;;;;;13.93;8.98;;;4.90;99.90;;;;;;5029885;28;20036;-84
2023/03/29 06:33:11;;;;;;;20.00;9.35;;;4.90;99.90;;;;;;5029675;28;20017;-84
2023/03/29 06:35:40;;;;;;;18.00;8.63;;;4.90;99.90;;;;;;5028182;28;20036;-83
2023/03/29 06:38:06;;;;;;;24.27;8.85;;;4.90;99.90;;;;;;5032613;28;20026;-82
2023/03/29 06:40:36;;;;;;;17.33;8.43;;;4.90;99.90;;;;;;5033402;28;20539;-84
2023/03/29 06:43:02;;;;;;;13.32;8.35;;;5.00;99.90;;;;;;5023336;28;20497;-84
2023/03/29 06:45:30;;;;;;;14.80;8.93;;;4.90;99.90;;;;;;5031941;28;20040;-81
2023/03/29 06:47:56;;;;;;;12.63;7.72;;;5.00;99.90;;;;;;5037726;28;20025;-84
2023/03/29 06:50:22;;;;;;;16.20;8.10;;;5.00;99.90;;;;;;5021075;28;20086;-80
2023/03/29 06:52:48;;;;;;;13.85;8.10;;;5.10;99.90;;;;;;5029788;28;20040;-83
2023/03/29 06:55:15;;;;;;;16.35;8.27;;;5.10;99.90;;;;;;5023388;28;20086;-84
2023/03/29 06:57:40;;;;;;;19.90;8.18;;;5.10;99.90;;;;;;5031966;28;20286;-82
2023/03/29 07:00:26;;;;;;;15.35;8.15;;;5.10;99.90;;;;;;5037001;28;20049;-81
2023/03/29 07:02:53;;;;;;;14.60;8.02;;;5.20;99.90;;;;;;5031059;28;20111;-83
2023/03/29 07:05:19;;;;;;;11.88;6.95;;;5.20;99.90;;;;;;5043502;28;21428;-84
2023/03/29 07:10:34;;;;;;;18.45;7.40;;;5.30;99.90;;;;;;5038325;28;20555;-83
2023/03/29 07:13:00;;;;;;;12.23;7.00;;;5.30;99.90;;;;;;5037229;28;20542;-83
2023/03/29 07:15:28;;;;;;;16.38;7.30;;;5.40;99.90;;;;;;5041919;28;20033;-83
2023/03/29 07:17:54;;;;;;;11.50;7.15;;;5.40;99.90;;;;;;5021834;28;20054;-83
2023/03/29 07:20:21;;;;;;;18.70;8.07;;;5.40;99.90;;;;;;5038159;28;20045;-84
2023/03/29 07:22:49;;;;;;;17.05;7.85;;;5.40;99.90;;;;;;5037564;28;20079;-82
2023/03/29 07:25:17;;;;;;;20.85;7.22;;;5.50;99.90;;;;;;5038186;28;20025;-83
2023/03/29 07:27:45;;;;;;;14.30;7.38;;;5.50;99.90;;;;;;5044078;28;20044;-83
2023/03/29 07:30:15;;;;;;;12.75;6.25;;;5.50;99.90;;;;;;5043678;28;20037;-83
2023/03/29 07:32:43;;;;;;;11.00;6.35;;;5.60;99.90;;;;;;5045738;28;20029;-82
2023/03/29 07:35:10;;;;;;;13.85;6.70;;;5.60;99.90;;;;;;5047163;28;20044;-82
2023/03/29 07:37:36;;;;;;;11.13;6.25;;;5.60;99.90;;;;;;5037792;28;20034;-84
2023/03/29 07:40:08;;;;;;;11.52;6.90;;;5.60;99.90;;;;;;5040683;28;20040;-85
2023/03/29 07:42:35;;;;;;;15.88;7.18;;;5.70;99.90;;;;;;5048479;28;20036;-83
2023/03/29 07:45:06;;;;;;;13.23;7.68;;;5.60;99.90;;;;;;5041260;28;20045;-83
2023/03/29 07:47:31;;;;;;;15.93;7.55;;;5.70;99.90;;;;;;5046554;28;20033;-83
2023/03/29 07:49:58;;;;;;;13.38;6.65;;;5.70;99.90;;;;;;5047801;28;20039;-83
2023/03/29 07:52:24;;;;;;;18.50;7.70;;;5.70;99.90;;;;;;5042097;28;20714;-83
2023/03/29 07:54:49;;;;;;;20.30;7.90;;;5.70;99.90;;;;;;5039478;28;20029;-83
2023/03/29 07:57:15;;;;;;;15.43;7.47;;;5.70;99.90;;;;;;5041084;28;20032;-83
2023/03/29 07:59:41;;;;;;;15.23;7.32;;;5.70;99.90;;;;;;5033726;28;20531;-83
2023/03/29 08:02:09;;;;;;;15.93;6.28;;;5.60;99.90;;;;;;5023700;28;20037;-83
2023/03/29 08:04:35;;;;;;;16.25;6.68;;;5.70;99.90;;;;;;5035442;28;20477;-81
2023/03/29 08:07:01;;;;;;;14.80;6.70;;;5.70;99.90;;;;;;5035481;28;20022;-83
2023/03/29 08:09:26;;;;;;;12.15;6.40;;;5.70;99.90;;;;;;5035088;28;20041;-83
2023/03/29 08:11:52;;;;;;;15.25;6.32;;;5.70;99.90;;;;;;5046880;28;20033;-83
2023/03/29 08:14:20;;;;;;;15.90;6.32;;;5.70;99.90;;;;;;5039441;28;20038;-83
2023/03/29 08:16:46;;;;;;;9.45;6.47;;;5.70;99.90;;;;;;5039126;28;20183;-83
2023/03/29 08:19:13;;;;;;;11.25;5.82;;;5.80;99.90;;;;;;5037108;28;20548;-84
2023/03/29 08:21:38;;;;;;;14.60;5.97;;;5.80;99.90;;;;;;5039321;28;20115;-83
2023/03/29 08:24:04;;;;;;;10.13;5.22;;;5.90;99.90;;;;;;5042237;28;20115;-83
2023/03/29 08:26:30;;;;;;;10.40;5.20;;;5.90;99.90;;;;;;5038440;28;20611;-83
2023/03/29 08:28:55;;;;;;;12.15;5.95;;;5.90;99.90;;;;;;5036896;28;20155;-83
2023/03/29 08:31:21;;;;;;;14.93;6.10;;;6.00;99.90;;;;;;5042118;28;20337;-83
2023/03/29 08:33:46;;;;;;;12.43;5.53;;;6.00;99.90;;;;;;5035855;28;20036;-84
2023/03/29 08:36:12;;;;;;;13.32;5.97;;;6.10;99.90;;;;;;5048744;28;20103;-83
2023/03/29 08:38:38;;;;;;;11.45;5.25;;;6.20;99.90;;;;;;5038523;28;20057;-83
2023/03/29 08:41:55;;;;;;;10.02;5.20;;;6.30;99.90;;;;;;5040635;28;20425;-83
2023/03/29 08:45:02;;;;;;;9.38;5.35;;;6.20;99.90;;;;;;5035169;28;20257;-83
2023/03/29 08:47:49;;;;;;;21.05;5.38;;;6.30;99.90;;;;;;5035116;28;20037;-83
2023/03/29 08:50:16;;;;;;;12.63;5.40;;;6.40;99.90;;;;;;5033063;28;20032;-83
2023/03/29 08:52:51;;;;;;;8.98;5.18;;;6.50;99.90;;;;;;5041819;28;20470;-83
2023/03/29 08:55:23;;;;;;;12.60;5.30;;;6.50;99.90;;;;;;5044824;28;20095;-84
2023/03/29 08:57:50;;;;;;;11.48;5.20;;;6.60;99.90;;;;;;5037787;28;20033;-84
2023/03/29 09:00:41;;;;;;;10.75;5.32;;;6.70;99.90;;;;;;5043765;28;20049;-83
2023/03/29 09:03:22;;;;;;;10.10;5.00;;;6.80;99.90;;;;;;5042357;28;20018;-84
2023/03/29 09:05:56;;;;;;;9.55;4.82;;;6.80;99.90;;;;;;5040462;28;20033;-83
2023/03/29 09:08:24;;;;;;;15.65;5.85;;;6.90;99.90;;;;;;5046423;28;20040;-83
2023/03/29 09:11:20;;;;;;;8.15;4.57;;;6.90;99.90;;;;;;5047365;28;20025;-83
2023/03/29 09:14:13;;;;;;;7.13;4.72;;;6.90;99.90;;;;;;5040467;28;20036;-83
2023/03/29 09:16:42;;;;;;;15.73;5.43;;;7.00;99.90;;;;;;5038223;28;20402;-83
2023/03/29 09:19:46;;;;;;;8.57;5.25;;;7.20;99.90;;;;;;5040638;28;20040;-82
2023/03/29 09:22:22;;;;;;;12.13;4.63;;;7.30;99.90;;;;;;5035906;28;20052;-85
2023/03/29 09:24:59;;;;;;;7.43;5.32;;;7.40;99.90;;;;;;5038376;28;20025;-83
2023/03/29 09:27:42;;;;;;;7.35;4.65;;;7.50;99.90;;;;;;5028718;28;20052;-83
2023/03/29 09:30:25;;;;;;;11.15;4.63;;;7.50;99.90;;;;;;5042493;28;20363;-83
2023/03/29 09:33:18;;;;;;;7.43;4.88;;;7.60;99.90;;;;;;5033689;28;20033;-84
2023/03/29 09:35:51;;;;;;;8.85;4.30;;;7.70;99.90;;;;;;5035146;28;20172;-81
2023/03/29 09:38:18;;;;;;;7.68;4.45;;;7.80;99.90;;;;;;5042519;28;20430;-82
2023/03/29 09:40:58;;;;;;;14.15;5.32;;;7.80;99.90;;;;;;5041514;28;20030;-83
2023/03/29 09:43:36;;;;;;;14.52;5.30;;;7.90;99.90;;;;;;5031983;28;20456;-83
2023/03/29 09:46:17;;;;;;;12.63;5.05;;;7.90;99.90;;;;;;5038206;28;20093;-83
2023/03/29 09:48:44;;;;;;;11.02;4.55;;;7.90;99.90;;;;;;5036973;28;20441;-83
2023/03/29 09:51:13;;;;;;;7.22;4.15;;;7.80;99.90;;;;;;5034532;28;20120;-83
2023/03/29 09:53:39;;;;;;;11.57;4.18;;;7.90;99.90;;;;;;5030084;28;20185;-84
2023/03/29 09:56:07;;;;;;;8.13;4.80;;;7.80;99.90;;;;;;5037690;28;20120;-83
2023/03/29 09:58:33;;;;;;;9.50;4.43;;;7.80;99.90;;;;;;5038370;28;20036;-83
2023/03/29 10:01:01;;;;;;;8.73;4.38;;;7.80;99.90;;;;;;5038528;28;20445;-83
2023/03/29 10:03:30;;;;;;;10.52;4.60;;;7.80;99.90;;;;;;5035565;28;20059;-82
2023/03/29 10:05:58;;;;;;;13.98;4.97;;;7.80;99.90;;;;;;5037919;28;20033;-83
2023/03/29 10:08:38;;;;;;;10.43;5.22;;;8.00;99.90;;;;;;5035064;28;20022;-83
2023/03/29 10:11:12;;;;;;;13.63;5.78;;;8.00;99.90;;;;;;5037958;28;20047;-83
2023/03/29 10:13:44;;;;;;;7.22;4.60;;;8.10;99.90;;;;;;5030361;28;20029;-83
2023/03/29 10:16:23;;;;;;;7.25;4.93;;;8.30;99.90;;;;;;5037772;28;20478;-82
2023/03/29 10:18:49;;;;;;;16.90;5.95;;;8.30;99.90;;;;;;5035335;28;20424;-82
2023/03/29 10:21:19;;;;;;;7.45;4.57;;;8.30;99.90;;;;;;5038826;28;20025;-82
2023/03/29 10:23:48;;;;;;;14.48;4.40;;;8.40;99.90;;;;;;5036121;28;20496;-83
2023/03/29 10:26:28;;;;;;;11.93;4.63;;;8.50;99.90;;;;;;5033237;28;20031;-83
2023/03/29 10:28:56;;;;;;;10.57;5.38;;;8.40;99.90;;;;;;5037562;28;20029;-82
2023/03/29 10:31:23;;;;;;;13.18;5.28;;;8.50;99.90;;;;;;5034854;28;20025;-82
2023/03/29 10:34:01;;;;;;;12.77;5.43;;;8.60;99.90;;;;;;5033153;28;20381;-82
2023/03/29 10:36:27;;;;;;;11.40;4.60;;;8.70;99.90;;;;;;5037727;28;20029;-82
2023/03/29 10:38:58;;;;;;;10.93;5.38;;;8.70;99.90;;;;;;5035982;28;20437;-83
2023/03/29 10:41:26;;;;;;;14.95;5.85;;;8.80;99.90;;;;;;5033098;28;20486;-83
2023/03/29 10:43:52;;;;;;;9.93;4.80;;;8.90;99.90;;;;;;5037159;28;20056;-82
2023/03/29 10:46:22;;;;;;;10.32;4.50;;;8.90;99.90;;;;;;5035256;28;20029;-83
2023/03/29 10:48:59;;;;;;;8.80;4.35;;;9.10;99.90;;;;;;5035967;28;20033;-85
2023/03/29 10:51:28;;;;;;;12.50;4.78;;;9.20;99.90;;;;;;5035598;28;20037;-83
2023/03/29 10:53:59;;;;;;;8.93;4.03;;;9.30;99.90;;;;;;5031610;28;20398;-81
2023/03/29 10:56:41;;;;;;;7.82;4.18;;;9.30;99.90;;;;;;5036325;28;20037;-82
2023/03/29 10:59:30;;;;;;;7.03;4.60;;;9.40;99.90;;;;;;5037528;28;20060;-82
2023/03/29 11:02:14;;;;;;;12.80;4.75;;;9.40;99.90;;;;;;5031220;28;20037;-83
2023/03/29 11:04:55;;;;;;;10.07;3.85;;;9.40;99.90;;;;;;5034145;28;20033;-84
2023/03/29 11:07:55;;;;;;;12.55;3.95;;;9.50;99.90;;;;;;5037487;28;20025;-82
2023/03/29 11:10:34;;;;;;;8.90;3.45;;;9.50;99.90;;;;;;5039026;28;20776;-83
2023/03/29 11:13:22;;;;;;;5.43;3.05;;;9.50;99.90;;;;;;5041164;28;20048;-83
2023/03/29 11:15:58;;;;;;;6.63;3.25;;;9.40;99.90;;;;;;5037993;28;20124;-83
2023/03/29 11:18:40;;;;;;;10.07;3.17;;;9.50;99.90;;;;;;5022875;28;20046;-83
2023/03/29 11:21:29;;;;;;;13.68;3.28;;;9.50;99.90;;;;;;5023544;28;20037;-82
2023/03/29 11:24:32;;;;;;;8.52;3.22;;;9.50;99.90;;;;;;5025951;28;20041;-82
2023/03/29 11:27:41;;;;;;;8.85;2.92;;;9.60;99.90;;;;;;5026530;28;20495;-83
2023/03/29 11:30:10;;;;;;;6.78;2.35;;;9.80;99.90;;;;;;5026967;28;20112;-81
2023/03/29 11:33:01;;;;;;;9.27;2.83;;;10.00;99.90;;;;;;5025503;28;20128;-82
2023/03/29 11:36:04;;;;;;;9.38;3.22;;;10.10;99.90;;;;;;5027332;28;20060;-81
2023/03/29 11:38:45;;;;;;;4.00;2.65;;;10.10;99.90;;;;;;5032513;28;20044;-82
2023/03/29 11:41:27;;;;;;;3.47;2.22;;;10.10;99.90;;;;;;5029639;28;20045;-82
2023/03/29 11:44:02;;;;;;;5.50;2.17;;;10.30;99.90;;;;;;5033908;28;20054;-83
2023/03/29 11:46:36;;;;;;;10.75;3.30;;;10.60;99.90;;;;;;5027827;28;20074;-81
2023/03/29 11:49:15;;;;;;;3.13;2.33;;;10.90;99.90;;;;;;5032363;28;20053;-82
2023/03/29 11:51:50;;;;;;;13.27;2.90;;;11.00;99.90;;;;;;5034065;28;20485;-83
2023/03/29 11:54:39;;;;;;;5.80;2.28;;;11.10;99.90;;;;;;5027467;28;20061;-83
2023/03/29 11:57:24;;;;;;;4.30;2.50;;;11.30;99.90;;;;;;5029020;28;20021;-82
2023/03/29 12:00:11;;;;;;;3.67;2.30;;;11.40;99.90;;;;;;5025493;28;20036;-82
2023/03/29 12:02:41;;;;;;;4.35;2.15;;;11.50;99.90;;;;;;5056471;28;20026;-82
2023/03/29 12:05:19;;;;;;;6.20;2.28;;;11.60;99.90;;;;;;5034897;28;20029;-83
2023/03/29 12:07:51;;;;;;;8.38;2.08;;;11.50;99.90;;;;;;5038597;28;20516;-80
2023/03/29 12:10:25;;;;;;;3.85;1.80;;;11.60;99.90;;;;;;5026328;28;20415;-81
2023/03/29 12:12:59;;;;;;;7.70;1.90;;;11.70;99.90;;;;;;5027173;28;20025;-81
2023/03/29 12:15:30;;;;;;;7.07;2.28;;;11.70;99.90;;;;;;5020760;28;20030;-84
2023/03/29 12:18:25;;;;;;;6.28;1.90;;;11.80;99.90;;;;;;5029133;28;20072;-83
2023/03/29 12:20:56;;;;;;;2.88;1.65;;;12.00;99.90;;;;;;5035675;28;20411;-83
2023/03/29 12:23:22;;;;;;;5.65;2.00;;;12.30;99.90;;;;;;5035493;28;20033;-82
2023/03/29 12:26:15;;;;;;;3.08;1.52;;;12.30;99.90;;;;;;5040198;28;20026;-83
2023/03/29 12:29:15;;;;;;;3.53;1.40;;;12.40;99.90;;;;;;5032680;28;20052;-82
2023/03/29 12:32:13;;;;;;;8.93;1.20;;;12.70;99.90;;;;;;5030739;28;20025;-77
2023/03/29 12:34:54;;;;;;;3.97;1.40;;;12.90;99.90;;;;;;5023057;28;21789;-81
2023/03/29 12:37:30;;;;;;;3.33;1.30;;;13.00;99.90;;;;;;5033961;28;20077;-81
2023/03/29 12:40:12;;;;;;;5.53;1.65;;;13.10;99.90;;;;;;5027956;28;20067;-80
2023/03/29 12:42:57;;;;;;;4.35;1.60;;;13.20;99.90;;;;;;5024968;28;20237;-81
2023/03/29 12:45:53;;;;;;;2.38;1.42;;;13.30;99.90;;;;;;5032998;28;20033;-80
2023/03/29 12:48:23;;;;;;;2.38;1.50;;;13.30;99.90;;;;;;5023670;28;20030;-83
2023/03/29 12:51:12;;;;;;;4.82;1.55;;;13.30;99.90;;;;;;5035820;28;20025;-83
2023/03/29 12:53:40;;;;;;;3.03;1.70;;;13.40;99.90;;;;;;5036405;28;20028;-82
2023/03/29 12:56:10;;;;;;;3.35;1.73;;;13.60;99.90;;;;;;5023782;28;20210;-80
2023/03/29 12:58:39;;;;;;;4.13;1.88;;;13.50;99.90;;;;;;5029510;28;20060;-80
2023/03/29 13:01:21;;;;;;;6.13;1.45;;;13.20;99.90;;;;;;5031610;28;20037;-81
2023/03/29 13:03:59;;;;;;;3.30;1.30;;;12.90;99.90;;;;;;5036008;28;20120;-80
2023/03/29 13:06:52;;;;;;;1.40;1.15;;;12.60;99.90;;;;;;5023734;28;20025;-82
2023/03/29 13:09:31;;;;;;;6.75;1.48;;;12.40;99.90;;;;;;5031697;28;20071;-82
2023/03/29 13:12:17;;;;;;;2.78;1.40;;;12.40;99.90;;;;;;5028862;28;20033;-83
2023/03/29 13:14:49;;;;;;;1.38;1.27;;;12.40;99.90;;;;;;5028151;28;20028;-82
2023/03/29 13:17:21;;;;;;;1.95;1.30;;;12.40;99.90;;;;;;5025420;28;20058;-82